Time;durP1;ratioP1;P1;durP2;ratioP2;P2;SDS_P1;SDS_P2;PMS_P1;PMS_P2;Temp;Humidity;BMP_temperature;BMP_pressure;BME280_temperature;BME280_humidity;BME280_pressure;Samples;Min_cycle;Max_cycle;Signal;HPM_P1;HPM_P2
2022/09/07 00:00:19;;;;;;;;;;;;;;;17.48;85.23;101048.34;5094835;28;19919;-80
2022/09/07 00:02:45;;;;;;;;;;;;;;;17.52;85.53;101028.91;5082960;28;20353;-80
2022/09/07 00:05:10;;;;;;;;;;;;;;;17.46;85.55;101021.28;5091906;28;20281;-80
2022/09/07 00:07:35;;;;;;;;;;;;;;;17.51;85.03;100989.56;5081034;28;19920;-80
2022/09/07 00:10:01;;;;;;;;;;;;;;;17.49;84.56;100965.13;5093654;28;19942;-80
2022/09/07 00:12:28;;;;;;;;;;;;;;;17.44;85.18;100996.84;5093655;28;20273;-80
2022/09/07 00:14:53;;;;;;;;;;;;;;;17.55;86.28;100997.25;5096353;28;19923;-80
2022/09/07 00:17:19;;;;;;;;;;;;;;;17.60;86.88;101000.53;5074490;28;19927;-80
2022/09/07 00:19:44;;;;;;;;;;;;;;;17.70;86.85;101005.34;5093244;28;20344;-80
2022/09/07 00:22:09;;;;;;;;;;;;;;;17.62;85.89;100997.81;5091676;28;19916;-80
2022/09/07 00:24:35;;;;;;;;;;;;;;;17.59;86.61;101014.56;5091496;28;19916;-80
2022/09/07 00:27:00;;;;;;;;;;;;;;;17.68;86.34;101005.41;5104925;28;20026;-80
2022/09/07 00:29:25;;;;;;;;;;;;;;;17.62;86.65;100974.16;5073962;28;20486;-80
2022/09/07 00:31:51;;;;;;;;;;;;;;;17.64;87.69;100967.09;5091437;28;20639;-80
2022/09/07 00:34:16;;;;;;;;;;;;;;;17.60;87.05;100969.00;5091131;28;20428;-80
2022/09/07 00:36:41;;;;;;;;;;;;;;;17.66;87.23;100990.66;5086012;28;19917;-80
2022/09/07 00:39:07;;;;;;;;;;;;;;;17.60;86.46;100970.78;5081662;28;19941;-80
2022/09/07 00:41:32;;;;;;;;;;;;;;;17.62;86.84;100966.28;5085394;28;20439;-80
2022/09/07 00:44:17;;;;;;;;;;;;;;;17.72;86.99;100971.97;5090343;28;20324;-80
2022/09/07 00:46:43;;;;;;;;;;;;;;;17.68;86.66;100952.88;5090607;28;19963;-80
2022/09/07 00:49:11;;;;;;;;;;;;;;;17.64;87.00;100960.97;5093493;28;19970;-80
2022/09/07 00:51:50;;;;;;;;;;;;;;;17.64;86.40;100958.34;5089996;28;19923;-80
2022/09/07 00:54:18;;;;;;;;;;;;;;;17.60;86.76;100945.34;5090445;28;19916;-80
2022/09/07 00:56:45;;;;;;;;;;;;;;;17.63;86.86;100952.25;5103472;28;19912;-80
2022/09/07 00:59:12;;;;;;;;;;;;;;;17.63;86.86;100933.00;5110833;28;19916;-79
2022/09/07 01:01:38;;;;;;;;;;;;;;;17.63;86.92;100939.09;5099976;28;19924;-79
2022/09/07 01:04:03;;;;;;;;;;;;;;;17.62;86.94;100934.75;5091005;28;20384;-80
2022/09/07 01:06:33;;;;;;;;;;;;;;;17.65;86.65;100931.16;5103998;28;19916;-80
2022/09/07 01:09:01;;;;;;;;;;;;;;;17.58;86.56;100927.94;5110865;28;19912;-80
2022/09/07 01:11:27;;;;;;;;;;;;;;;17.52;86.72;100918.56;5096327;28;20365;-79
2022/09/07 01:13:53;;;;;;;;;;;;;;;17.50;86.48;100912.53;5110849;28;19915;-80
2022/09/07 01:16:34;;;;;;;;;;;;;;;17.51;86.21;100905.50;5088343;28;19923;-80
2022/09/07 01:19:18;;;;;;;;;;;;;;;17.51;86.87;100902.88;5072065;28;19923;-80
2022/09/07 01:22:02;;;;;;;;;;;;;;;17.52;86.60;100888.81;5079695;28;19924;-80
2022/09/07 01:24:37;;;;;;;;;;;;;;;17.55;86.30;100893.94;5072263;28;19927;-79
2022/09/07 01:27:21;;;;;;;;;;;;;;;17.52;86.36;100899.34;5077380;28;20446;-79
2022/09/07 01:29:46;;;;;;;;;;;;;;;17.59;87.14;100896.34;5093978;28;19957;-80
2022/09/07 01:32:30;;;;;;;;;;;;;;;17.59;86.54;100900.75;5093889;28;20003;-80
2022/09/07 01:34:56;;;;;;;;;;;;;;;17.59;86.68;100903.38;5090942;28;19920;-79
2022/09/07 01:37:29;;;;;;;;;;;;;;;17.52;86.55;100899.34;5075201;28;19916;-80
2022/09/07 01:40:06;;;;;;;;;;;;;;;17.56;86.55;100893.03;5079382;28;20011;-80
2022/09/07 01:42:36;;;;;;;;;;;;;;;17.64;86.59;100895.31;5098160;28;20410;-80
2022/09/07 01:45:03;;;;;;;;;;;;;;;17.63;86.65;100891.81;5100549;28;19911;-80
2022/09/07 01:47:46;;;;;;;;;;;;;;;17.59;86.24;100885.84;5075468;28;19909;-80
2022/09/07 01:50:18;;;;;;;;;;;;;;;17.58;86.30;100883.28;5090047;28;19939;-80
2022/09/07 01:52:53;;;;;;;;;;;;;;;17.56;86.49;100878.09;5089031;28;19954;-80
2022/09/07 01:55:22;;;;;;;;;;;;;;;17.56;86.31;100879.88;5089713;28;19916;-80
2022/09/07 01:57:54;;;;;;;;;;;;;;;17.51;86.35;100876.59;5090088;28;20408;-80
2022/09/07 02:00:19;;;;;;;;;;;;;;;17.55;86.54;100878.19;5089705;28;19920;-79
2022/09/07 02:02:50;;;;;;;;;;;;;;;17.58;86.35;100878.03;5090294;28;19960;-80
2022/09/07 02:05:20;;;;;;;;;;;;;;;17.64;86.32;100884.78;5089882;28;19951;-80
2022/09/07 02:07:58;;;;;;;;;;;;;;;17.54;86.26;100881.72;5071081;28;19917;-79
2022/09/07 02:10:39;;;;;;;;;;;;;;;17.55;86.58;100886.06;5086270;28;19949;-80
2022/09/07 02:13:14;;;;;;;;;;;;;;;17.59;86.83;100892.88;5087048;28;19916;-80
2022/09/07 02:15:58;;;;;;;;;;;;;;;17.56;86.82;100887.78;5069514;28;19995;-80
2022/09/07 02:18:25;;;;;;;;;;;;;;;17.59;86.57;100887.63;5080309;28;20019;-80
2022/09/07 02:20:53;;;;;;;;;;;;;;;17.60;86.32;100884.09;5076245;28;20440;-80
2022/09/07 02:23:24;;;;;;;;;;;;;;;17.64;86.66;100876.91;5067423;28;19928;-80
2022/09/07 02:25:57;;;;;;;;;;;;;;;17.64;86.81;100867.25;5089666;28;19923;-80
2022/09/07 02:28:26;;;;;;;;;;;;;;;17.58;86.56;100859.66;5089622;28;19923;-80
2022/09/07 02:30:52;;;;;;;;;;;;;;;17.62;86.54;100861.22;5092859;28;19939;-80
2022/09/07 02:33:17;;;;;;;;;;;;;;;17.54;85.88;100855.44;5071611;28;20376;-80
2022/09/07 02:35:42;;;;;;;;;;;;;;;17.57;86.28;100858.78;5090617;28;20006;-80
2022/09/07 02:38:08;;;;;;;;;;;;;;;17.53;85.78;100854.59;5091277;28;19922;-80
2022/09/07 02:40:34;;;;;;;;;;;;;;;17.58;85.91;100852.63;5090282;28;20379;-80
2022/09/07 02:43:02;;;;;;;;;;;;;;;17.56;86.15;100848.38;5093741;28;20012;-80
2022/09/07 02:45:32;;;;;;;;;;;;;;;17.53;86.17;100843.25;5093203;28;19947;-80
2022/09/07 02:48:14;;;;;;;;;;;;;;;17.48;85.83;100832.97;5091582;28;19965;-79
2022/09/07 02:50:46;;;;;;;;;;;;;;;17.51;86.08;100824.94;5093864;28;19908;-80
2022/09/07 02:53:21;;;;;;;;;;;;;;;17.54;85.96;100826.56;5093435;28;19920;-80
2022/09/07 02:56:10;;;;;;;;;;;;;;;17.52;85.77;100824.03;5092999;28;20010;-80
2022/09/07 02:58:35;;;;;;;;;;;;;;;17.55;85.53;100817.75;5092946;28;19935;-80
2022/09/07 03:01:00;;;;;;;;;;;;;;;17.54;85.64;100810.78;5091785;28;19916;-80
2022/09/07 03:03:46;;;;;;;;;;;;;;;17.51;86.00;100800.44;5093317;28;19920;-80
2022/09/07 03:06:21;;;;;;;;;;;;;;;17.52;85.65;100799.53;5094313;28;19997;-80
2022/09/07 03:08:49;;;;;;;;;;;;;;;17.48;85.76;100796.19;5093875;28;19955;-80
2022/09/07 03:11:15;;;;;;;;;;;;;;;17.50;84.88;100801.38;5093004;28;20290;-80
2022/09/07 03:13:41;;;;;;;;;;;;;;;17.49;84.78;100802.31;5074637;28;20347;-80
2022/09/07 03:16:11;;;;;;;;;;;;;;;17.43;84.56;100806.09;5090221;28;20023;-80
2022/09/07 03:18:36;;;;;;;;;;;;;;;17.42;84.50;100804.38;5088774;28;19920;-80
2022/09/07 03:21:01;;;;;;;;;;;;;;;17.44;84.55;100793.81;5086393;28;19981;-80
2022/09/07 03:23:27;;;;;;;;;;;;;;;17.44;85.02;100796.44;5086113;28;19920;-80
2022/09/07 03:25:52;;;;;;;;;;;;;;;17.45;84.91;100795.50;5090116;28;19920;-80
2022/09/07 03:28:18;;;;;;;;;;;;;;;17.47;84.53;100796.28;5087603;28;20065;-80
2022/09/07 03:30:46;;;;;;;;;;;;;;;17.39;84.46;100807.16;5088585;28;20057;-80
2022/09/07 03:33:14;;;;;;;;;;;;;;;17.33;83.95;100803.97;5092131;28;20377;-79
2022/09/07 03:35:39;;;;;;;;;;;;;;;17.31;84.37;100798.78;5095489;28;19912;-80
2022/09/07 03:38:05;;;;;;;;;;;;;;;17.37;84.65;100798.50;5094966;28;19916;-80
2022/09/07 03:40:30;;;;;;;;;;;;;;;17.30;84.05;100797.09;5089808;28;19916;-80
2022/09/07 03:42:55;;;;;;;;;;;;;;;17.34;83.85;100803.91;5094169;28;19939;-80
2022/09/07 03:45:21;;;;;;;;;;;;;;;17.35;83.91;100804.75;5092514;28;19922;-79
2022/09/07 03:47:46;;;;;;;;;;;;;;;17.35;83.83;100810.00;5092494;28;19919;-80
2022/09/07 03:50:11;;;;;;;;;;;;;;;17.30;83.48;100809.34;5091727;28;20002;-80
2022/09/07 03:52:37;;;;;;;;;;;;;;;17.29;83.34;100807.69;5092373;28;20403;-80
2022/09/07 03:55:03;;;;;;;;;;;;;;;17.22;83.38;100811.50;5074208;28;19951;-80
2022/09/07 03:57:28;;;;;;;;;;;;;;;17.14;83.13;100809.25;5087092;28;19947;-80
2022/09/07 03:59:53;;;;;;;;;;;;;;;17.20;83.16;100803.72;5089450;28;19957;-80
2022/09/07 04:02:18;;;;;;;;;;;;;;;17.26;83.35;100810.44;5092386;28;20625;-80
2022/09/07 04:04:47;;;;;;;;;;;;;;;17.22;83.46;100808.88;5092034;28;19916;-80
2022/09/07 04:07:13;;;;;;;;;;;;;;;17.23;83.70;100816.69;5073812;28;20355;-80
2022/09/07 04:09:38;;;;;;;;;;;;;;;17.14;82.60;100811.88;5092013;28;19995;-80
2022/09/07 04:12:04;;;;;;;;;;;;;;;17.16;83.08;100810.03;5092114;28;20285;-79
2022/09/07 04:14:29;;;;;;;;;;;;;;;17.15;83.02;100810.94;5092682;28;20408;-80
2022/09/07 04:16:54;;;;;;;;;;;;;;;17.18;83.56;100807.31;5090598;28;19920;-80
2022/09/07 04:19:20;;;;;;;;;;;;;;;17.25;83.21;100808.72;5094498;28;20339;-80
2022/09/07 04:21:46;;;;;;;;;;;;;;;17.14;82.88;100809.25;5080931;28;19916;-80
2022/09/07 04:24:15;;;;;;;;;;;;;;;17.16;83.13;100811.78;5091723;28;20444;-79
2022/09/07 04:26:42;;;;;;;;;;;;;;;17.20;82.99;100800.25;5091467;28;20591;-80
2022/09/07 04:29:08;;;;;;;;;;;;;;;17.11;82.39;100801.53;5091168;28;19920;-80
2022/09/07 04:31:34;;;;;;;;;;;;;;;17.12;83.02;100795.34;5086425;28;19916;-80
2022/09/07 04:34:00;;;;;;;;;;;;;;;17.15;83.23;100802.22;5074501;28;19923;-80
2022/09/07 04:36:25;;;;;;;;;;;;;;;17.15;83.14;100799.59;5094385;28;19920;-79
2022/09/07 04:38:55;;;;;;;;;;;;;;;17.16;83.02;100815.28;5100216;28;19916;-79
2022/09/07 04:41:22;;;;;;;;;;;;;;;17.11;82.60;100809.41;5096427;28;20427;-80
2022/09/07 04:43:51;;;;;;;;;;;;;;;17.11;82.28;100805.94;5090445;28;19921;-80
2022/09/07 04:46:16;;;;;;;;;;;;;;;17.11;82.04;100798.03;5090858;28;19981;-80
2022/09/07 04:48:41;;;;;;;;;;;;;;;17.15;82.98;100796.97;5090931;28;20420;-80
2022/09/07 04:51:08;;;;;;;;;;;;;;;17.14;82.96;100798.75;5090959;28;20027;-79
2022/09/07 04:53:34;;;;;;;;;;;;;;;17.11;83.15;100785.78;5091734;28;19912;-80
2022/09/07 04:55:59;;;;;;;;;;;;;;;17.16;83.25;100789.03;5090755;28;19916;-79
2022/09/07 04:58:25;;;;;;;;;;;;;;;17.11;82.90;100790.16;5090913;28;19966;-80
2022/09/07 05:00:50;;;;;;;;;;;;;;;17.06;83.11;100790.38;5089943;28;19923;-80
2022/09/07 05:03:15;;;;;;;;;;;;;;;17.06;82.76;100793.84;5072526;28;20295;-79
2022/09/07 05:05:41;;;;;;;;;;;;;;;17.04;82.49;100792.22;5091222;28;19960;-80
2022/09/07 05:08:06;;;;;;;;;;;;;;;17.11;83.02;100796.28;5090629;28;19999;-80
2022/09/07 05:10:31;;;;;;;;;;;;;;;17.05;82.96;100802.69;5090230;28;20011;-79
2022/09/07 05:12:57;;;;;;;;;;;;;;;17.11;83.64;100809.41;5090881;28;19919;-80
2022/09/07 05:15:22;;;;;;;;;;;;;;;17.11;83.39;100812.03;5090570;28;19916;-79
2022/09/07 05:17:49;;;;;;;;;;;;;;;17.14;83.81;100813.66;5084212;28;19998;-80
2022/09/07 05:20:15;;;;;;;;;;;;;;;17.12;84.45;100812.84;5091405;28;19923;-80
2022/09/07 05:22:40;;;;;;;;;;;;;;;17.08;84.58;100809.56;5086196;28;20300;-79
2022/09/07 05:25:06;;;;;;;;;;;;;;;17.08;84.87;100815.63;5087482;28;20312;-80
2022/09/07 05:27:32;;;;;;;;;;;;;;;17.03;84.77;100814.13;5069558;28;19916;-79
2022/09/07 05:29:57;;;;;;;;;;;;;;;17.09;84.13;100813.84;5067714;28;19916;-79
2022/09/07 05:32:22;;;;;;;;;;;;;;;17.03;84.65;100824.63;5060594;28;19916;-80
2022/09/07 05:34:48;;;;;;;;;;;;;;;17.10;84.29;100825.22;5065672;28;19917;-79
2022/09/07 05:37:13;;;;;;;;;;;;;;;17.08;85.00;100813.94;5061306;28;19931;-80
2022/09/07 05:39:38;;;;;;;;;;;;;;;17.09;84.21;100821.72;5068367;28;19916;-80
2022/09/07 05:42:04;;;;;;;;;;;;;;;17.03;84.75;100819.38;5070119;28;19913;-79
2022/09/07 05:44:30;;;;;;;;;;;;;;;16.99;84.68;100816.09;5053090;28;19928;-80
2022/09/07 05:46:56;;;;;;;;;;;;;;;17.02;84.49;100818.56;5063210;28;19916;-80
2022/09/07 05:49:24;;;;;;;;;;;;;;;17.10;83.79;100820.81;5053121;28;19995;-80
2022/09/07 05:51:49;;;;;;;;;;;;;;;17.11;83.80;100816.41;5059102;28;20398;-79
2022/09/07 05:54:15;;;;;;;;;;;;;;;17.06;84.35;100821.88;5055178;28;19920;-79
2022/09/07 05:56:40;;;;;;;;;;;;;;;17.11;84.27;100833.03;5070494;28;19951;-79
2022/09/07 05:59:08;;;;;;;;;;;;;;;17.05;84.69;100836.78;5057429;28;19923;-80
2022/09/07 06:01:34;;;;;;;;;;;;;;;17.14;83.94;100832.88;5051870;28;20285;-80
2022/09/07 06:04:00;;;;;;;;;;;;;;;17.07;85.09;100828.84;5071410;28;19928;-80
2022/09/07 06:06:25;;;;;;;;;;;;;;;17.15;84.51;100838.97;5069459;28;19917;-79
2022/09/07 06:08:51;;;;;;;;;;;;;;;17.17;84.51;100842.38;5070445;28;19917;-80
2022/09/07 06:11:18;;;;;;;;;;;;;;;17.17;84.24;100842.38;5059666;28;20369;-80
2022/09/07 06:13:43;;;;;;;;;;;;;;;17.16;83.80;100838.91;5068764;28;19917;-80
2022/09/07 06:16:10;;;;;;;;;;;;;;;17.21;84.11;100843.91;5065680;28;19949;-80
2022/09/07 06:18:40;;;;;;;;;;;;;;;17.20;84.26;100843.09;5070490;28;19921;-80
2022/09/07 06:21:15;;;;;;;;;;;;;;;17.22;83.74;100845.63;5073392;28;20551;-79
2022/09/07 06:23:41;;;;;;;;;;;;;;;17.23;84.24;100847.34;5071938;28;19922;-80
2022/09/07 06:26:06;;;;;;;;;;;;;;;17.27;84.11;100843.63;5073367;28;19921;-80
2022/09/07 06:28:39;;;;;;;;;;;;;;;17.26;84.48;100842.81;5073561;28;19923;-80
2022/09/07 06:31:06;;;;;;;;;;;;;;;17.29;84.99;100847.91;5067171;28;20089;-80
2022/09/07 06:33:31;;;;;;;;;;;;;;;17.31;84.74;100848.69;5048585;28;20340;-79
2022/09/07 06:35:58;;;;;;;;;;;;;;;17.32;85.08;100852.16;5067218;28;19959;-79
2022/09/07 06:38:23;;;;;;;;;;;;;;;17.35;84.43;100849.41;5073419;28;19919;-80
2022/09/07 06:40:49;;;;;;;;;;;;;;;17.37;84.96;100855.41;5069360;28;20011;-80
2022/09/07 06:43:14;;;;;;;;;;;;;;;17.40;85.43;100850.00;5079340;28;19928;-80
2022/09/07 06:45:39;;;;;;;;;;;;;;;17.46;85.55;100847.97;5060734;28;19923;-79
2022/09/07 06:48:05;;;;;;;;;;;;;;;17.49;85.84;100847.81;5066150;28;19939;-79
2022/09/07 06:50:30;;;;;;;;;;;;;;;17.55;86.25;100851.91;5054123;28;19917;-80
2022/09/07 06:52:56;;;;;;;;;;;;;;;17.56;86.37;100851.81;5073230;28;19920;-80
2022/09/07 06:55:21;;;;;;;;;;;;;;;17.59;86.49;100850.84;5076661;28;20360;-80
2022/09/07 06:57:46;;;;;;;;;;;;;;;17.55;86.20;100852.75;5074685;28;19923;-79
2022/09/07 07:00:12;;;;;;;;;;;;;;;17.56;85.61;100848.38;5093413;28;20015;-79
2022/09/07 07:02:37;;;;;;;;;;;;;;;17.61;85.94;100849.03;5079508;28;19916;-79
2022/09/07 07:05:03;;;;;;;;;;;;;;;17.59;86.09;100849.06;5093521;28;20308;-80
2022/09/07 07:07:28;;;;;;;;;;;;;;;17.63;85.80;100848.94;5093164;28;19923;-80
2022/09/07 07:09:53;;;;;;;;;;;;;;;17.66;86.04;100843.53;5088284;28;20420;-79
2022/09/07 07:12:19;;;;;;;;;;;;;;;17.65;85.52;100854.97;5078881;28;20004;-79
2022/09/07 07:14:44;;;;;;;;;;;;;;;17.71;85.59;100855.50;5095716;28;20384;-80
2022/09/07 07:17:09;;;;;;;;;;;;;;;17.71;84.83;100849.44;5073154;28;20018;-80
2022/09/07 07:19:35;;;;;;;;;;;;;;;17.75;85.53;100849.19;5094143;28;20515;-80
2022/09/07 07:22:00;;;;;;;;;;;;;;;17.75;85.74;100864.94;5075369;28;20455;-80
2022/09/07 07:24:25;;;;;;;;;;;;;;;17.71;84.97;100863.38;5087435;28;19931;-80
2022/09/07 07:26:51;;;;;;;;;;;;;;;17.77;85.73;100867.53;5072941;28;20431;-79
2022/09/07 07:29:16;;;;;;;;;;;;;;;17.76;85.84;100866.66;5073673;28;20393;-80
2022/09/07 07:31:41;;;;;;;;;;;;;;;17.81;86.11;100871.69;5087125;28;20397;-80
2022/09/07 07:34:07;;;;;;;;;;;;;;;17.82;86.97;100876.03;5085043;28;19989;-80
2022/09/07 07:36:33;;;;;;;;;;;;;;;17.81;87.20;100875.16;5052064;28;20288;-79
2022/09/07 07:38:58;;;;;;;;;;;;;;;17.81;86.71;100877.78;5076011;28;19920;-80
2022/09/07 07:41:26;;;;;;;;;;;;;;;17.80;86.71;100885.75;5095968;28;19923;-80
2022/09/07 07:43:55;;;;;;;;;;;;;;;17.79;85.72;100882.28;5087153;28;19938;-80
2022/09/07 07:46:21;;;;;;;;;;;;;;;17.82;85.46;100883.91;5092159;28;19965;-80
2022/09/07 07:48:47;;;;;;;;;;;;;;;17.85;85.86;100884.63;5089881;28;20021;-79
2022/09/07 07:51:12;;;;;;;;;;;;;;;17.88;86.49;100887.09;5091103;28;19951;-80
2022/09/07 07:53:39;;;;;;;;;;;;;;;17.89;87.10;100887.91;5092702;28;19940;-80
2022/09/07 07:56:04;;;;;;;;;;;;;;;17.92;86.87;100887.75;5092067;28;19923;-80
2022/09/07 07:58:31;;;;;;;;;;;;;;;17.88;84.41;100884.47;5091834;28;19916;-80
2022/09/07 08:01:00;;;;;;;;;;;;;;;17.88;84.26;100884.47;5088525;28;20463;-80
2022/09/07 08:03:26;;;;;;;;;;;;;;;17.94;85.27;100880.66;5091748;28;20343;-79
2022/09/07 08:05:51;;;;;;;;;;;;;;;17.97;85.66;100880.53;5091674;28;19912;-79
2022/09/07 08:08:17;;;;;;;;;;;;;;;17.97;84.90;100875.25;5087627;28;20148;-80
2022/09/07 08:10:44;;;;;;;;;;;;;;;18.02;85.55;100879.38;5091864;28;20358;-80
2022/09/07 08:13:10;;;;;;;;;;;;;;;18.00;86.10;100875.13;5091926;28;19922;-80
2022/09/07 08:15:42;;;;;;;;;;;;;;;18.03;86.18;100874.97;5091394;28;20085;-80
2022/09/07 08:18:07;;;;;;;;;;;;;;;18.03;86.34;100888.97;5088858;28;19927;-79
2022/09/07 08:20:32;;;;;;;;;;;;;;;18.02;84.98;100886.41;5073756;28;19924;-80
2022/09/07 08:22:58;;;;;;;;;;;;;;;18.06;85.26;100887.94;5091218;28;20442;-80
2022/09/07 08:25:24;;;;;;;;;;;;;;;18.06;86.09;100891.44;5091786;28;19920;-80
2022/09/07 08:27:49;;;;;;;;;;;;;;;18.10;86.24;100900.84;5091582;28;19939;-80
2022/09/07 08:30:14;;;;;;;;;;;;;;;18.10;86.72;100900.84;5091306;28;20365;-79
2022/09/07 08:32:40;;;;;;;;;;;;;;;18.12;87.14;100896.34;5092221;28;19954;-80
2022/09/07 08:35:06;;;;;;;;;;;;;;;18.12;86.70;100901.63;5072011;28;20292;-80
2022/09/07 08:37:32;;;;;;;;;;;;;;;18.16;84.84;100907.56;5103229;28;19916;-79
2022/09/07 08:39:57;;;;;;;;;;;;;;;18.18;85.92;100917.09;5086543;28;20327;-80
2022/09/07 08:42:41;;;;;;;;;;;;;;;18.19;86.84;100915.31;5096106;28;20369;-80
2022/09/07 08:45:16;;;;;;;;;;;;;;;18.16;87.13;100910.22;5079898;28;19962;-79
2022/09/07 08:47:44;;;;;;;;;;;;;;;18.13;85.43;100915.63;5082834;28;19916;-80
2022/09/07 08:50:20;;;;;;;;;;;;;;;18.22;85.39;100911.69;5073179;28;19916;-80
2022/09/07 08:52:48;;;;;;;;;;;;;;;18.18;85.59;100909.19;5091326;28;19923;-80
2022/09/07 08:55:28;;;;;;;;;;;;;;;18.23;83.34;100916.00;5072846;28;19923;-79
2022/09/07 08:58:19;;;;;;;;;;;;;;;18.23;82.42;100913.38;5088398;28;20037;-80
2022/09/07 09:00:47;;;;;;;;;;;;;;;18.22;82.69;100914.31;5091006;28;19923;-79
2022/09/07 09:03:33;;;;;;;;;;;;;;;18.22;83.97;100915.16;5090015;28;19928;-79
2022/09/07 09:06:18;;;;;;;;;;;;;;;18.22;81.43;100914.31;5079320;28;20368;-79
2022/09/07 09:09:05;;;;;;;;;;;;;;;18.22;82.68;100914.31;5091233;28;19908;-79
2022/09/07 09:11:30;;;;;;;;;;;;;;;18.20;84.16;100917.03;5089860;28;20011;-79
2022/09/07 09:13:56;;;;;;;;;;;;;;;18.22;84.01;100922.19;5089799;28;20006;-80
2022/09/07 09:16:30;;;;;;;;;;;;;;;18.24;83.73;100923.84;5090713;28;20384;-80
2022/09/07 09:19:09;;;;;;;;;;;;;;;18.25;83.59;100915.00;5088452;28;19923;-80
2022/09/07 09:21:34;;;;;;;;;;;;;;;18.27;84.01;100914.94;5087723;28;19963;-80
2022/09/07 09:24:08;;;;;;;;;;;;;;;18.28;82.96;100916.63;5083722;28;19916;-79
2022/09/07 09:26:34;;;;;;;;;;;;;;;18.29;82.00;100919.19;5038967;28;19934;-80
2022/09/07 09:29:12;;;;;;;;;;;;;;;18.31;82.35;100919.09;5062357;28;20011;-79
2022/09/07 09:31:38;;;;;;;;;;;;;;;18.32;81.16;100918.19;5054035;28;19931;-80
2022/09/07 09:34:08;;;;;;;;;;;;;;;18.34;81.33;100922.44;5044762;28;19921;-79
2022/09/07 09:36:53;;;;;;;;;;;;;;;18.35;81.60;100920.66;5061979;28;19961;-79
2022/09/07 09:39:25;;;;;;;;;;;;;;;18.34;82.54;100922.44;5060124;28;20529;-79
2022/09/07 09:41:51;;;;;;;;;;;;;;;18.33;82.70;100920.75;5079873;28;20546;-80
2022/09/07 09:44:16;;;;;;;;;;;;;;;18.36;82.88;100923.19;5070509;28;19936;-79
2022/09/07 09:46:46;;;;;;;;;;;;;;;18.34;80.83;100914.53;5077085;28;20006;-80
2022/09/07 09:49:16;;;;;;;;;;;;;;;18.34;80.91;100917.19;5087850;28;19947;-80
2022/09/07 09:51:46;;;;;;;;;;;;;;;18.37;79.55;100914.38;5080779;28;19925;-80
2022/09/07 09:54:15;;;;;;;;;;;;;;;18.39;78.92;100916.97;5069553;28;19950;-79
2022/09/07 09:56:42;;;;;;;;;;;;;;;18.36;80.67;100920.56;5073779;28;19958;-79
2022/09/07 09:59:28;;;;;;;;;;;;;;;18.39;81.56;100924.84;5104990;28;19924;-80
2022/09/07 10:01:53;;;;;;;;;;;;;;;18.40;81.71;100924.75;5101718;28;19916;-80
2022/09/07 10:04:31;;;;;;;;;;;;;;;18.42;77.25;100920.25;5099558;28;19927;-80
2022/09/07 10:07:07;;;;;;;;;;;;;;;18.51;76.23;100926.88;5093773;28;20395;-79
2022/09/07 10:09:35;;;;;;;;;;;;;;;18.54;78.80;100924.94;5086585;28;19999;-79
2022/09/07 10:12:01;;;;;;;;;;;;;;;18.51;78.46;100917.19;5095876;28;19912;-79
2022/09/07 10:14:42;;;;;;;;;;;;;;;18.51;77.64;100911.09;5102423;28;19960;-80
2022/09/07 10:17:34;;;;;;;;;;;;;;;18.56;77.35;100912.56;5092775;28;19920;-80
2022/09/07 10:20:00;;;;;;;;;;;;;;;18.66;77.13;100915.53;5081029;28;19939;-80
2022/09/07 10:22:30;;;;;;;;;;;;;;;18.65;74.82;100917.34;5089810;28;19947;-80
2022/09/07 10:24:56;;;;;;;;;;;;;;;18.70;74.25;100925.00;5089732;28;19928;-79
2022/09/07 10:27:24;;;;;;;;;;;;;;;18.73;74.73;100918.72;5097119;28;19965;-79
2022/09/07 10:29:49;;;;;;;;;;;;;;;18.72;73.46;100919.66;5098420;28;19923;-80
2022/09/07 10:32:22;;;;;;;;;;;;;;;18.66;76.25;100916.41;5104590;28;19912;-80
2022/09/07 10:34:51;;;;;;;;;;;;;;;18.64;75.55;100910.38;5102026;28;20013;-79
2022/09/07 10:37:32;;;;;;;;;;;;;;;18.73;74.25;100913.44;5089956;28;20045;-79
2022/09/07 10:40:05;;;;;;;;;;;;;;;18.70;74.71;100911.84;5088961;28;20369;-79
2022/09/07 10:42:32;;;;;;;;;;;;;;;18.66;73.88;100905.88;5073673;28;19916;-79
2022/09/07 10:45:10;;;;;;;;;;;;;;;18.75;72.36;100894.00;5059815;28;19928;-79
2022/09/07 10:47:50;;;;;;;;;;;;;;;18.74;74.34;100899.38;5089853;28;20418;-80
2022/09/07 10:50:18;;;;;;;;;;;;;;;18.62;75.46;100898.25;5090802;28;19976;-79
2022/09/07 10:52:51;;;;;;;;;;;;;;;18.59;75.91;100893.13;5091853;28;20678;-79
2022/09/07 10:55:42;;;;;;;;;;;;;;;18.60;76.41;100886.94;5071464;28;19920;-79
2022/09/07 10:58:20;;;;;;;;;;;;;;;18.70;71.03;100878.47;5088277;28;19930;-80
2022/09/07 11:01:03;;;;;;;;;;;;;;;18.70;71.92;100875.00;5096787;28;19916;-80
2022/09/07 11:03:41;;;;;;;;;;;;;;;18.91;69.56;100868.59;5092702;28;19925;-80
2022/09/07 11:06:10;;;;;;;;;;;;;;;18.90;65.94;100866.03;5087208;28;19920;-80
2022/09/07 11:08:44;;;;;;;;;;;;;;;18.83;70.05;100870.78;5097660;28;19998;-79
2022/09/07 11:11:24;;;;;;;;;;;;;;;18.84;68.42;100866.38;5108823;28;19924;-79
2022/09/07 11:13:52;;;;;;;;;;;;;;;18.92;70.44;100866.81;5110811;28;19915;-80
2022/09/07 11:16:20;;;;;;;;;;;;;;;18.88;71.64;100860.84;5108267;28;19924;-79
2022/09/07 11:18:57;;;;;;;;;;;;;;;18.77;72.96;100860.59;5091742;28;19966;-79
2022/09/07 11:21:25;;;;;;;;;;;;;;;18.94;69.78;100859.66;5084948;28;20408;-79
2022/09/07 11:23:50;;;;;;;;;;;;;;;19.15;68.19;100855.88;5077001;28;20499;-80
2022/09/07 11:26:19;;;;;;;;;;;;;;;18.99;69.31;100850.59;5099155;28;19965;-80
2022/09/07 11:28:55;;;;;;;;;;;;;;;18.88;70.81;100854.75;5057324;28;19920;-79
2022/09/07 11:31:25;;;;;;;;;;;;;;;18.92;71.31;100856.28;5092498;28;19962;-80
2022/09/07 11:33:56;;;;;;;;;;;;;;;19.10;69.15;100857.91;5092773;28;19951;-79
2022/09/07 11:36:22;;;;;;;;;;;;;;;19.16;69.23;100868.13;5092390;28;19927;-79
2022/09/07 11:38:57;;;;;;;;;;;;;;;19.31;68.02;100866.44;5090518;28;19908;-80
2022/09/07 11:41:51;;;;;;;;;;;;;;;19.04;71.50;100863.53;5095286;28;19915;-80
2022/09/07 11:44:20;;;;;;;;;;;;;;;18.96;73.88;100857.78;5047274;28;19928;-79
2022/09/07 11:46:47;;;;;;;;;;;;;;;18.86;74.24;100846.94;5092298;28;19923;-80
2022/09/07 11:49:22;;;;;;;;;;;;;;;18.93;73.73;100848.28;5091996;28;19916;-79
2022/09/07 11:51:54;;;;;;;;;;;;;;;19.01;72.24;100850.53;5103588;28;20277;-80
2022/09/07 11:54:22;;;;;;;;;;;;;;;19.23;69.59;100835.22;5093318;28;19920;-79
2022/09/07 11:57:05;;;;;;;;;;;;;;;19.29;67.87;100836.69;5093475;28;19912;-79
2022/09/07 11:59:44;;;;;;;;;;;;;;;19.44;68.24;100841.97;5082194;28;19999;-79
2022/09/07 12:02:28;;;;;;;;;;;;;;;19.26;71.26;100845.59;5092451;28;19916;-79
2022/09/07 12:05:13;;;;;;;;;;;;;;;19.46;70.95;100840.06;5085219;28;19927;-80
2022/09/07 12:07:47;;;;;;;;;;;;;;;19.47;71.83;100856.75;5081021;28;19927;-80
2022/09/07 12:10:13;;;;;;;;;;;;;;;19.45;71.88;100843.66;5095373;28;20388;-80
2022/09/07 12:12:56;;;;;;;;;;;;;;;19.38;72.55;100844.09;5090540;28;19922;-80
2022/09/07 12:15:57;;;;;;;;;;;;;;;19.54;70.34;100843.16;5107859;28;19920;-80
2022/09/07 12:18:41;;;;;;;;;;;;;;;19.58;70.38;100839.38;5028131;28;19917;-79
2022/09/07 12:21:25;;;;;;;;;;;;;;;19.48;72.35;100842.66;5081923;28;20322;-79
2022/09/07 12:23:50;;;;;;;;;;;;;;;19.46;72.31;100842.72;5092321;28;19950;-79
2022/09/07 12:26:31;;;;;;;;;;;;;;;19.53;70.89;100846.72;5072820;28;19920;-80
2022/09/07 12:28:56;;;;;;;;;;;;;;;19.69;69.28;100833.50;5091632;28;19920;-80
2022/09/07 12:31:39;;;;;;;;;;;;;;;19.63;67.06;100825.97;5091453;28;19923;-80
2022/09/07 12:34:24;;;;;;;;;;;;;;;19.43;69.08;100837.63;5073641;28;19995;-79
2022/09/07 12:36:52;;;;;;;;;;;;;;;19.39;69.15;100832.63;5078556;28;20442;-79
2022/09/07 12:39:20;;;;;;;;;;;;;;;19.47;69.57;100833.88;5070553;28;19916;-80
2022/09/07 12:41:49;;;;;;;;;;;;;;;19.19;73.75;100829.28;5086294;28;20402;-80
2022/09/07 12:44:16;;;;;;;;;;;;;;;19.23;72.50;100832.59;5090986;28;19927;-79
2022/09/07 12:46:43;;;;;;;;;;;;;;;19.29;70.65;100818.25;5073374;28;19916;-79